createdAt,value
2023-05-05T00:18:57.110Z,9.93
2023-05-05T00:49:00.265Z,7.57
2023-05-05T01:19:04.323Z,6.43
2023-05-05T01:49:07.503Z,6.00
2023-05-05T02:19:10.419Z,5.37
2023-05-05T02:49:14.177Z,5.87
2023-05-05T03:19:18.196Z,4.63
2023-05-05T03:49:21.420Z,3.53
2023-05-05T04:19:24.510Z,4.05
2023-05-05T04:49:27.804Z,3.80
2023-05-05T05:19:32.301Z,3.20
2023-05-05T05:49:35.082Z,3.83
2023-05-05T06:19:38.465Z,3.80
2023-05-05T06:49:41.363Z,3.73
2023-05-05T07:19:45.292Z,4.50
2023-05-05T07:49:48.101Z,4.30
2023-05-05T08:19:51.732Z,4.40
2023-05-05T08:49:54.698Z,4.47
2023-05-05T09:19:58.184Z,4.85
2023-05-05T09:50:01.523Z,4.97
2023-05-05T10:20:05.910Z,4.77
2023-05-05T10:50:09.802Z,4.70
2023-05-05T11:20:13.356Z,5.67
2023-05-05T11:50:16.803Z,5.40
2023-05-05T12:20:20.219Z,5.37
2023-05-05T12:50:23.230Z,5.13
2023-05-05T13:20:26.513Z,4.30
2023-05-05T13:50:29.406Z,5.10
2023-05-05T14:20:32.895Z,4.20
2023-05-05T14:50:35.758Z,4.60
2023-05-05T15:20:39.151Z,3.73
2023-05-05T15:50:42.066Z,5.10
2023-05-05T16:20:45.944Z,3.13
2023-05-05T16:50:49.042Z,3.30
2023-05-05T17:20:52.709Z,4.13
2023-05-05T17:50:55.582Z,3.33
2023-05-05T18:20:59.157Z,3.47
2023-05-05T18:51:02.029Z,3.30
2023-05-05T19:21:05.736Z,3.87
2023-05-05T19:51:08.740Z,4.23
2023-05-05T20:21:11.721Z,4.13
2023-05-05T20:51:14.734Z,4.13
2023-05-05T21:21:17.737Z,4.30
2023-05-05T21:51:21.266Z,4.40
2023-05-05T22:21:24.212Z,5.63
2023-05-05T22:51:27.692Z,5.00
2023-05-05T23:21:33.987Z,4.67
2023-05-05T23:51:39.801Z,4.70
